KCID/CID METAR and TAF weather

Enter ICAO airport designator
Station Type Date Time Source
KCID METAR 2019/02/23 22:52 UTC NOAA

KCID 232252Z 09018KT 3SM -RA BR OVC003 01/01 A2951 RMK AO2 UPB19E23RAB23 SLP999 P0005 T00060006 $


Station Type Date Time Source
KCID Decoded METAR 2019/02/23 22:52 UTC NOAA

CEDAR RAPIDS AIRPORT, IA, United States (KCID) 41-53N 91-43W
Feb 23, 2019 - 05:52 PM EST / 2019.02.23 2252 UTC
Wind: from the E (090 degrees) at 21 MPH (18 KT):0
Visibility: 3 mile(s):0
Sky conditions: overcast
Weather: light rain; mist
Precipitation last hour: 0.05 inches
Temperature: 33.1 F (0.6 C)
Windchill: 21 F (-6 C):1
Dew Point: 33.1 F (0.6 C)
Relative Humidity: 100%
Pressure (altimeter): 29.51 in. Hg (999 hPa)
ob: KCID 232252Z 09018KT 3SM -RA BR OVC003 01/01 A2951 RMK AO2 UPB19E23RAB23 SLP999 P0005 T00060006
cycle: 23

Station Type Date Time Source
KCID TAF 2019/02/23 22:42 UTC NOAA

TAF
AMD KCID 232139Z 2322/2418 09016KT 1/2SM -RA FG OVC002 WS020/13035KT
TEMPO 2322/2401 1SM -RA BR OVC003
FM240100 11009KT 1SM BR OVC003
FM240500 26011KT 1 1/2SM RASN OVC003
FM240700 30020G31KT 2SM -SN OVC008
FM240900 30026G39KT 3SM -SN BLSN OVC015
FM241400 29030G38KT P6SM SCT015 BKN030


Example: see airport list